Time;durP1;ratioP1;P1;durP2;ratioP2;P2;SDS_P1;SDS_P2;PMS_P1;PMS_P2;Temp;Humidity;BMP_temperature;BMP_pressure;BME280_temperature;BME280_humidity;BME280_pressure;Samples;Min_cycle;Max_cycle;Signal;HPM_P1;HPM_P2
2022/06/11 00:03:20;;;;;;;10.50;4.30;;;;;;;14.81;53.57;99586.09;106080;1274;24301;-81
2022/06/11 00:06:29;;;;;;;;;;;;;;;;;;;;;
2022/06/11 00:09:58;;;;;;;16.70;6.10;;;;;;;14.53;53.83;99583.36;106062;1274;26469;-79
2022/06/11 00:13:00;;;;;;;;;;;;;;;;;;;;;
2022/06/11 00:15:53;;;;;;;10.10;5.30;;;;;;;14.30;54.08;99579.38;106061;1274;25487;-81
2022/06/11 00:18:53;;;;;;;12.30;4.70;;;;;;;14.20;54.10;99582.52;105926;1274;23927;-81
2022/06/11 00:21:53;;;;;;;13.40;4.30;;;;;;;14.18;54.20;99582.13;105644;1276;22573;-83
2022/06/11 00:25:00;;;;;;;12.60;4.80;;;;;;;14.21;54.27;99586.91;105993;1274;26481;-85
2022/06/11 00:27:48;;;;;;;11.70;5.00;;;;;;;14.23;54.31;99587.09;105912;1275;24074;-81
2022/06/11 00:30:49;;;;;;;;;;;;;;;;;;;;;
2022/06/11 00:33:35;;;;;;;13.50;5.20;;;;;;;14.25;54.45;99584.65;105917;1274;25376;-82
2022/06/11 00:36:09;;;;;;;11.00;5.00;;;;;;;14.22;54.65;99583.41;105927;1274;25772;-80
2022/06/11 00:38:53;;;;;;;12.60;5.20;;;;;;;14.12;54.74;99584.02;105972;1275;22702;-81
2022/06/11 00:41:41;;;;;;;;;;;;;;;;;;;;;
2022/06/11 00:44:28;;;;;;;11.70;5.40;;;;;;;13.98;54.91;99586.04;106034;1274;22644;-83
2022/06/11 00:47:25;;;;;;;;;;;;;;;;;;;;;
2022/06/11 00:50:36;;;;;;;;;;;;;;;;;;;;;
2022/06/11 00:53:14;;;;;;;11.90;5.30;;;;;;;13.96;55.24;99593.39;105954;1274;22508;-82
2022/06/11 00:56:10;;;;;;;10.20;5.20;;;;;;;13.95;55.23;99587.36;105997;1274;22726;-85
2022/06/11 00:59:06;;;;;;;;;;;;;;;;;;;;;
2022/06/11 01:01:50;;;;;;;12.60;5.00;;;;;;;13.87;55.35;99590.63;106035;1275;25316;-81
2022/06/11 01:05:10;;;;;;;11.20;5.30;;;;;;;13.75;55.54;99587.98;105986;1275;22546;-83
2022/06/11 01:08:21;;;;;;;11.20;5.20;;;;;;;13.66;55.62;99586.73;105882;1275;22575;-80
2022/06/11 01:11:39;;;;;;;10.50;5.10;;;;;;;13.59;55.81;99586.88;105940;1274;25516;-81
2022/06/11 01:15:08;;;;;;;;;;;;;;;;;;;;;
2022/06/11 01:18:21;;;;;;;;;;;;;;;;;;;;;
2022/06/11 01:20:52;;;;;;;9.80;4.90;;;;;;;13.42;56.16;99587.85;106152;1273;25242;-85
2022/06/11 01:23:33;;;;;;;10.10;4.80;;;;;;;13.45;56.28;99585.96;106157;1274;24298;-85
2022/06/11 01:26:37;;;;;;;12.10;5.10;;;;;;;13.51;56.25;99586.98;106126;1273;22554;-85
2022/06/11 01:30:03;;;;;;;10.40;4.80;;;;;;;13.54;56.27;99586.39;105677;1281;25324;-81
2022/06/11 01:33:11;;;;;;;12.20;4.80;;;;;;;13.45;56.16;99588.27;105271;1285;22584;-83
2022/06/11 01:36:21;;;;;;;11.10;5.40;;;;;;;13.34;56.14;99589.67;105002;1287;24495;-85
2022/06/11 01:39:45;;;;;;;;;;;;;;;;;;;;;
2022/06/11 01:42:50;;;;;;;11.70;4.50;;;;;;;13.20;56.36;99595.55;105060;1285;26486;-82
2022/06/11 01:45:23;;;;;;;10.40;3.90;;;;;;;13.16;56.32;99591.30;105126;1285;23083;-85
2022/06/11 01:48:22;;;;;;;13.10;4.30;;;;;;;13.16;56.38;99592.80;105145;1285;25243;-81
2022/06/11 01:51:35;;;;;;;;;;;;;;;;;;;;;
2022/06/11 01:54:57;;;;;;;12.00;4.40;;;;;;;13.16;56.63;99590.96;105084;1284;25374;-83
2022/06/11 01:58:18;;;;;;;;;;;;;;;;;;;;;
2022/06/11 02:01:40;;;;;;;14.40;5.40;;;;;;;13.08;56.91;99597.32;105160;1285;25216;-81
2022/06/11 02:04:56;;;;;;;13.10;4.70;;;;;;;12.89;57.00;99599.45;105901;1279;22565;-84
2022/06/11 02:08:17;;;;;;;12.40;6.20;;;;;;;12.81;57.14;99598.62;105949;1275;24214;-82
2022/06/11 02:11:26;;;;;;;14.90;8.10;;;;;;;12.76;57.23;99601.50;105847;1274;23177;-84
2022/06/11 02:14:29;;;;;;;15.00;6.30;;;;;;;12.64;57.18;99600.38;105730;1281;22804;-85
2022/06/11 02:17:33;;;;;;;15.10;5.30;;;;;;;12.53;57.38;99606.64;105693;1281;22476;-82
2022/06/11 02:20:19;;;;;;;11.90;6.10;;;;;;;12.41;57.51;99607.49;105747;1281;25361;-81
2022/06/11 02:23:35;;;;;;;14.50;6.30;;;;;;;12.37;57.75;99606.90;105669;1281;22719;-84
2022/06/11 02:26:41;;;;;;;;;;;;;;;;;;;;;
2022/06/11 02:29:38;;;;;;;14.70;6.80;;;;;;;12.44;57.64;99600.89;105618;1281;22545;-84
2022/06/11 02:32:59;;;;;;;18.10;8.80;;;;;;;12.45;57.73;99604.38;105707;1281;25607;-87
2022/06/11 02:36:17;;;;;;;;;;;;;;;;;;;;;
2022/06/11 02:39:16;;;;;;;10.80;5.70;;;;;;;12.37;58.04;99605.51;105689;1282;22645;-86
2022/06/11 02:42:03;;;;;;;12.90;5.50;;;;;;;12.40;58.20;99604.95;105728;1281;22527;-86
2022/06/11 02:45:12;;;;;;;15.10;6.80;;;;;;;12.31;58.18;99607.14;105657;1282;25584;-83
2022/06/11 02:47:55;;;;;;;13.50;6.60;;;;;;;12.20;58.29;99610.10;105631;1281;24315;-85
2022/06/11 02:50:58;;;;;;;;;;;;;;;;;;;;;
2022/06/11 02:53:48;;;;;;;15.10;6.30;;;;;;;12.27;58.34;99614.24;106088;1273;22583;-82
2022/06/11 02:56:25;;;;;;;12.30;6.70;;;;;;;12.32;58.60;99617.13;105974;1276;22552;-82
2022/06/11 02:59:33;;;;;;;;;;;;;;;;;;;;;
2022/06/11 03:02:38;;;;;;;13.80;6.00;;;;;;;12.41;58.57;99622.00;106018;1274;24213;-86
2022/06/11 03:05:24;;;;;;;14.30;5.60;;;;;;;12.51;58.65;99623.25;106121;1274;23232;-83
2022/06/11 03:08:32;;;;;;;16.00;7.50;;;;;;;12.53;58.48;99620.45;106006;1274;26600;-85
2022/06/11 03:11:44;;;;;;;13.90;7.80;;;;;;;12.53;58.50;99623.48;106040;1274;22561;-82
2022/06/11 03:14:28;;;;;;;15.50;8.00;;;;;;;12.55;58.63;99624.04;106078;1274;22580;-87
2022/06/11 03:17:09;;;;;;;16.70;7.40;;;;;;;12.54;58.66;99627.17;106002;1274;25288;-80
2022/06/11 03:20:07;;;;;;;;;;;;;;;;;;;;;
2022/06/11 03:22:50;;;;;;;16.20;6.30;;;;;;;12.51;58.92;99621.98;106014;1274;24476;-84
2022/06/11 03:25:20;;;;;;;13.10;5.40;;;;;;;12.53;58.90;99622.21;105862;1275;26840;-82
2022/06/11 03:28:05;;;;;;;;;;;;;;;;;;;;;
2022/06/11 03:30:40;;;;;;;12.80;5.00;;;;;;;12.64;58.88;99622.27;105994;1274;22844;-86
2022/06/11 03:33:07;;;;;;;10.30;5.20;;;;;;;12.71;58.83;99619.82;105859;1276;25305;-81
2022/06/11 03:35:55;;;;;;;13.10;5.20;;;;;;;12.81;58.97;99623.45;106058;1274;24196;-82
2022/06/11 03:39:18;;;;;;;;;;;;;;;;;;;;;
2022/06/11 03:42:14;;;;;;;;;;;;;;;;;;;;;
2022/06/11 03:45:23;;;;;;;;;;;;;;;;;;;;;
2022/06/11 03:48:35;;;;;;;;;;;;;;;;;;;;;
2022/06/11 03:51:35;;;;;;;11.00;4.60;;;;;;;13.23;59.10;99628.25;106032;1274;25201;-81
2022/06/11 03:54:36;;;;;;;11.80;6.00;;;;;;;13.22;59.30;99631.10;106123;1274;22563;-85
2022/06/11 03:57:09;;;;;;;11.50;5.20;;;;;;;13.41;59.44;99632.25;106059;1274;23077;-83
2022/06/11 03:59:57;;;;;;;;;;;;;;;;;;;;;
2022/06/11 04:02:47;;;;;;;14.30;6.30;;;;;;;13.84;59.37;99630.11;105993;1274;22702;-82
2022/06/11 04:06:06;;;;;;;;;;;;;;;;;;;;;
2022/06/11 04:09:10;;;;;;;;;;;;;;;;;;;;;
2022/06/11 04:12:15;;;;;;;;;;;;;;;;;;;;;
2022/06/11 04:15:36;;;;;;;11.30;5.00;;;;;;;14.42;59.27;99624.46;106055;1275;25287;-82
2022/06/11 04:18:48;;;;;;;;;;;;;;;;;;;;;
2022/06/11 04:22:04;;;;;;;;;;;;;;;;;;;;;
2022/06/11 04:25:02;;;;;;;12.10;4.50;;;;;;;14.99;59.35;99610.07;106062;1274;22531;-84
2022/06/11 04:27:34;;;;;;;10.80;4.30;;;;;;;15.19;59.18;99615.23;106037;1274;25318;-84
2022/06/11 04:30:18;;;;;;;11.40;4.40;;;;;;;15.38;59.26;99609.34;105977;1274;25600;-83
2022/06/11 04:32:58;;;;;;;8.70;3.40;;;;;;;15.58;58.87;99615.77;106023;1275;22554;-82
2022/06/11 04:35:38;;;;;;;10.40;3.20;;;;;;;15.68;58.75;99612.05;105799;1276;22625;-82
2022/06/11 04:38:06;;;;;;;7.60;2.60;;;;;;;15.78;58.45;99616.80;106025;1276;22726;-83
2022/06/11 04:40:39;;;;;;;9.90;2.60;;;;;;;15.88;58.43;99613.43;106052;1274;22573;-84
2022/06/11 04:43:25;;;;;;;8.90;3.20;;;;;;;16.03;58.48;99614.54;106047;1275;24259;-82
2022/06/11 04:46:04;;;;;;;7.60;3.10;;;;;;;16.16;58.13;99616.38;106082;1274;24782;-83
2022/06/11 04:48:45;;;;;;;9.60;3.10;;;;;;;16.25;57.97;99614.58;106019;1276;24316;-83
2022/06/11 04:51:17;;;;;;;10.60;2.70;;;;;;;16.36;58.04;99621.86;105855;1276;22560;-86
2022/06/11 04:54:08;;;;;;;8.30;2.60;;;;;;;16.51;57.84;99620.38;106067;1275;22587;-84
2022/06/11 04:56:45;;;;;;;10.00;2.80;;;;;;;16.69;57.88;99625.58;106066;1274;24304;-86
2022/06/11 04:59:17;;;;;;;9.60;3.20;;;;;;;16.86;57.86;99623.20;106230;1274;24362;-85
2022/06/11 05:02:01;;;;;;;;;;;;;;;;;;;;;
2022/06/11 05:04:30;;;;;;;19.20;7.70;;;;;;;17.19;57.65;99616.84;106168;1273;22541;-82
2022/06/11 05:07:09;;;;;;;36.00;22.40;;;;;;;17.29;57.67;99615.88;105988;1275;23056;-85
2022/06/11 05:09:39;;;;;;;36.00;19.30;;;;;;;17.44;57.70;99615.77;105926;1274;24441;-83
2022/06/11 05:12:16;;;;;;;33.50;16.60;;;;;;;17.65;57.92;99613.67;105914;1276;25287;-82
2022/06/11 05:14:54;;;;;;;31.70;17.80;;;;;;;17.88;57.56;99612.33;106001;1276;25509;-83
2022/06/11 05:17:33;;;;;;;17.30;8.40;;;;;;;18.08;57.39;99611.52;105951;1276;25669;-83
2022/06/11 05:20:36;;;;;;;;;;;;;;;;;;;;;
2022/06/11 05:23:18;;;;;;;21.60;8.20;;;;;;;18.50;57.54;99608.53;105994;1274;25309;-83
2022/06/11 05:25:56;;;;;;;20.00;7.80;;;;;;;18.80;57.79;99611.66;105952;1275;24296;-85
2022/06/11 05:28:34;;;;;;;15.20;5.70;;;;;;;19.04;57.53;99610.52;105990;1276;23860;-83
2022/06/11 05:31:10;;;;;;;13.50;3.50;;;;;;;19.28;57.54;99612.46;105955;1276;23912;-85
2022/06/11 05:33:42;;;;;;;10.50;2.90;;;;;;;19.49;57.36;99613.98;105849;1275;25565;-83
2022/06/11 05:36:18;;;;;;;14.60;2.60;;;;;;;19.67;57.14;99617.79;105978;1276;22678;-83
2022/06/11 05:38:50;;;;;;;9.80;2.50;;;;;;;19.83;57.14;99616.02;106033;1274;25328;-83
2022/06/11 05:41:34;;;;;;;7.00;1.90;;;;;;;19.99;57.04;99613.75;105943;1276;22561;-84
2022/06/11 05:44:08;;;;;;;6.60;2.30;;;;;;;20.19;57.24;99612.65;106066;1276;23938;-84
2022/06/11 05:46:41;;;;;;;10.30;2.50;;;;;;;20.35;56.97;99614.79;106006;1274;22531;-84
2022/06/11 05:49:14;;;;;;;8.20;2.40;;;;;;;20.49;56.82;99614.64;105594;1274;24219;-85
2022/06/11 05:51:45;;;;;;;9.20;2.40;;;;;;;20.65;56.83;99618.36;105763;1276;25505;-85
2022/06/11 05:54:23;;;;;;;9.90;2.20;;;;;;;20.78;56.62;99620.54;105982;1276;22632;-87
2022/06/11 05:56:54;;;;;;;13.20;2.60;;;;;;;20.93;56.56;99623.11;106171;1274;24069;-83
2022/06/11 05:59:29;;;;;;;9.20;2.10;;;;;;;21.08;56.57;99619.89;106033;1276;23031;-84
2022/06/11 06:02:04;;;;;;;7.90;2.20;;;;;;;21.20;56.39;99617.50;106111;1274;23913;-84
2022/06/11 06:04:54;;;;;;;7.60;2.00;;;;;;;21.36;56.43;99623.61;105905;1276;22624;-85
2022/06/11 06:07:29;;;;;;;6.50;1.90;;;;;;;21.50;56.34;99622.86;105962;1277;22570;-83
2022/06/11 06:10:04;;;;;;;8.60;2.10;;;;;;;21.64;56.16;99619.86;106150;1275;23928;-83
2022/06/11 06:12:39;;;;;;;8.40;2.10;;;;;;;21.74;56.08;99618.27;105984;1273;24885;-81
2022/06/11 06:15:13;;;;;;;12.70;2.20;;;;;;;21.88;56.19;99622.06;105818;1276;22554;-87
2022/06/11 06:17:50;;;;;;;9.10;2.20;;;;;;;22.06;56.13;99625.23;106037;1274;24082;-84
2022/06/11 06:20:22;;;;;;;8.20;2.00;;;;;;;22.21;56.12;99624.06;106122;1274;22527;-86
2022/06/11 06:22:57;;;;;;;8.20;2.20;;;;;;;22.37;55.88;99626.79;105946;1276;24283;-84
2022/06/11 06:25:27;;;;;;;11.50;2.20;;;;;;;22.50;55.90;99623.55;106023;1276;25240;-85
2022/06/11 06:27:55;;;;;;;6.40;1.90;;;;;;;22.65;55.81;99627.65;105974;1275;24359;-85
2022/06/11 06:30:24;;;;;;;7.30;2.10;;;;;;;22.80;55.81;99627.67;106004;1276;22541;-85
2022/06/11 06:32:54;;;;;;;9.30;2.40;;;;;;;22.98;55.91;99633.41;106008;1276;25450;-83
2022/06/11 06:35:28;;;;;;;6.00;1.90;;;;;;;23.13;55.57;99636.17;105852;1277;25492;-84
2022/06/11 06:38:02;;;;;;;7.40;1.70;;;;;;;23.29;55.59;99633.77;105883;1275;22554;-87
2022/06/11 06:40:32;;;;;;;6.30;1.80;;;;;;;23.42;55.65;99632.58;105921;1274;23030;-83
2022/06/11 06:43:04;;;;;;;7.10;2.10;;;;;;;23.57;55.45;99636.83;106057;1276;24307;-82
2022/06/11 06:45:31;;;;;;;6.70;2.20;;;;;;;23.70;55.45;99635.88;106022;1276;25443;-82
2022/06/11 06:47:58;;;;;;;5.40;2.00;;;;;;;23.85;55.64;99632.98;105990;1276;25413;-84
2022/06/11 06:50:28;;;;;;;7.00;1.70;;;;;;;24.00;55.51;99629.55;106027;1276;22695;-86
2022/06/11 06:53:08;;;;;;;8.30;1.90;;;;;;;24.09;55.00;99628.62;105987;1277;22537;-86
2022/06/11 06:55:38;;;;;;;7.30;2.10;;;;;;;24.21;55.11;99627.27;105880;1278;22552;-87
2022/06/11 06:58:05;;;;;;;8.00;2.20;;;;;;;24.25;54.76;99631.13;106020;1275;22553;-86
2022/06/11 07:00:38;;;;;;;7.80;2.10;;;;;;;24.30;55.01;99625.78;105956;1274;24416;-86
2022/06/11 07:03:35;;;;;;;;;;;;;;;;;;;;;
2022/06/11 07:06:34;;;;;;;6.70;1.80;;;;;;;24.60;54.43;99630.05;105789;1279;24299;-85
2022/06/11 07:09:02;;;;;;;5.70;1.80;;;;;;;24.68;54.46;99628.45;105908;1279;22753;-84
2022/06/11 07:11:38;;;;;;;5.70;1.90;;;;;;;24.76;54.31;99626.31;105822;1279;25312;-84
2022/06/11 07:14:33;;;;;;;6.70;1.80;;;;;;;24.84;54.13;99624.90;105727;1279;22598;-83
2022/06/11 07:17:20;;;;;;;7.40;1.90;;;;;;;24.99;54.24;99624.92;105753;1279;22637;-83
2022/06/11 07:20:29;;;;;;;;;;;;;;;;;;;;;
2022/06/11 07:23:21;;;;;;;8.60;1.90;;;;;;;25.29;53.93;99622.92;105947;1279;22055;-82
2022/06/11 07:26:14;;;;;;;11.30;2.90;;;;;;;25.44;54.01;99624.62;105699;1279;25386;-85
2022/06/11 07:29:09;;;;;;;7.50;1.90;;;;;;;25.57;53.70;99622.97;105785;1281;22573;-84
2022/06/11 07:32:06;;;;;;;;;;;;;;;;;;;;;
2022/06/11 07:35:11;;;;;;;6.10;1.60;;;;;;;25.78;53.22;99625.16;105862;1279;24477;-85
2022/06/11 07:38:16;;;;;;;6.90;1.60;;;;;;;25.80;52.86;99620.83;105844;1279;22697;-84
2022/06/11 07:40:44;;;;;;;5.50;1.30;;;;;;;25.64;52.62;99620.34;105804;1279;23101;-86
2022/06/11 07:43:33;;;;;;;8.80;2.10;;;;;;;25.74;52.77;99619.31;105915;1279;25537;-84
2022/06/11 07:46:26;;;;;;;;;;;;;;;;;;;;;
2022/06/11 07:50:09;;;;;;;;;;;;;;;;;;;;;
2022/06/11 07:53:46;;;;;;;6.60;1.30;;;;;;;26.32;51.83;99612.41;106327;1283;22587;-84
2022/06/11 07:56:28;;;;;;;7.40;1.50;;;;;;;26.26;51.91;99617.30;105841;1282;22549;-84
2022/06/11 07:59:10;;;;;;;6.40;1.40;;;;;;;26.33;51.71;99615.50;105974;1282;22552;-82
2022/06/11 08:02:33;;;;;;;6.10;1.40;;;;;;;26.47;51.76;99620.65;105148;1284;22832;-83
2022/06/11 08:05:01;;;;;;;4.60;1.40;;;;;;;26.48;51.17;99623.95;105566;1282;22784;-85
2022/06/11 08:07:51;;;;;;;;;;;;;;;;;;;;;
2022/06/11 08:10:56;;;;;;;5.20;1.30;;;;;;;26.68;51.07;99626.06;105605;1281;22626;-86
2022/06/11 08:13:52;;;;;;;;;;;;;;;;;;;;;
2022/06/11 08:16:45;;;;;;;7.10;1.50;;;;;;;26.55;50.04;99622.61;106022;1279;25309;-84
2022/06/11 08:19:12;;;;;;;6.20;1.40;;;;;;;26.44;49.64;99626.40;105649;1280;22566;-79
2022/06/11 08:21:41;;;;;;;7.80;1.60;;;;;;;26.41;49.06;99625.27;106126;1279;22542;-80
2022/06/11 08:24:08;;;;;;;6.70;1.20;;;;;;;26.36;49.54;99618.65;106005;1281;25554;-82
2022/06/11 08:26:45;;;;;;;4.70;0.80;;;;;;;26.53;49.78;99621.91;105859;1279;22667;-77
2022/06/11 08:29:19;;;;;;;3.80;1.00;;;;;;;26.80;48.92;99619.52;105967;1275;22707;-82
2022/06/11 08:31:50;;;;;;;8.00;1.50;;;;;;;26.76;48.58;99620.00;106054;1273;22826;-79
2022/06/11 08:34:17;;;;;;;11.20;2.20;;;;;;;26.83;48.93;99618.91;105975;1274;25375;-83
2022/06/11 08:36:51;;;;;;;5.70;1.50;;;;;;;27.03;48.47;99620.80;106011;1274;25303;-79
2022/06/11 08:39:17;;;;;;;7.40;1.40;;;;;;;26.94;48.09;99619.02;105979;1276;23403;-80
2022/06/11 08:41:49;;;;;;;12.30;2.50;;;;;;;27.08;48.17;99622.98;106036;1276;25206;-80
2022/06/11 08:44:17;;;;;;;9.50;1.80;;;;;;;27.08;47.66;99621.09;106029;1274;24206;-78
2022/06/11 08:46:48;;;;;;;6.60;1.70;;;;;;;27.08;47.47;99616.45;105870;1276;22744;-76
2022/06/11 08:49:44;;;;;;;10.70;2.10;;;;;;;26.99;47.76;99619.09;106156;1274;23903;-83
2022/06/11 08:52:28;;;;;;;4.90;0.90;;;;;;;26.83;47.45;99622.58;106032;1276;24407;-84
2022/06/11 08:55:02;;;;;;;7.10;1.10;;;;;;;26.68;46.65;99623.52;106156;1276;22531;-86
2022/06/11 08:57:59;;;;;;;5.90;1.00;;;;;;;26.26;46.56;99625.14;106330;1274;22732;-83
2022/06/11 09:01:06;;;;;;;5.50;1.30;;;;;;;26.19;46.95;99623.18;106199;1273;22716;-86
2022/06/11 09:03:47;;;;;;;4.70;1.10;;;;;;;26.35;46.52;99620.38;105570;1277;22545;-79
2022/06/11 09:06:28;;;;;;;6.10;1.00;;;;;;;26.46;46.54;99620.94;106286;1273;22588;-79
2022/06/11 09:09:38;;;;;;;7.50;1.10;;;;;;;26.50;46.42;99621.52;106072;1274;22705;-81
2022/06/11 09:12:38;;;;;;;5.30;1.20;;;;;;;26.22;46.27;99623.50;106109;1274;22544;-82
2022/06/11 09:15:46;;;;;;;6.90;1.20;;;;;;;26.43;46.15;99619.21;106077;1275;25501;-81
2022/06/11 09:19:15;;;;;;;5.80;1.20;;;;;;;26.75;45.52;99615.23;106106;1273;23262;-80
2022/06/11 09:22:28;;;;;;;4.20;0.90;;;;;;;27.00;45.68;99617.13;106123;1273;22588;-87
2022/06/11 09:25:17;;;;;;;4.00;1.00;;;;;;;27.20;45.37;99609.77;106072;1273;25248;-82
2022/06/11 09:28:03;;;;;;;3.70;1.00;;;;;;;27.08;44.77;99612.02;106408;1273;24212;-82
2022/06/11 09:30:37;;;;;;;4.00;1.00;;;;;;;26.56;44.35;99612.54;105880;1276;22836;-80
2022/06/11 09:33:24;;;;;;;9.70;1.50;;;;;;;26.43;44.98;99606.41;105968;1275;24359;-81
2022/06/11 09:36:05;;;;;;;6.60;0.80;;;;;;;26.54;45.27;99605.48;105900;1276;22748;-79
2022/06/11 09:38:54;;;;;;;6.10;1.10;;;;;;;27.06;45.90;99600.45;105958;1276;24245;-79
2022/06/11 09:41:21;;;;;;;5.30;1.00;;;;;;;27.47;44.57;99599.74;106093;1275;22556;-85
2022/06/11 09:44:29;;;;;;;5.70;1.50;;;;;;;27.51;43.97;99598.48;105966;1273;22577;-83
2022/06/11 09:47:02;;;;;;;8.60;1.30;;;;;;;27.64;44.69;99596.71;105817;1279;25286;-80
2022/06/11 09:49:53;;;;;;;5.30;1.10;;;;;;;27.69;43.84;99595.64;105694;1279;22643;-87
2022/06/11 09:52:47;;;;;;;5.50;1.10;;;;;;;27.56;44.11;99597.19;105783;1279;22537;-83
2022/06/11 09:56:02;;;;;;;9.00;1.20;;;;;;;27.54;44.05;99595.73;105818;1279;23141;-87
2022/06/11 09:58:41;;;;;;;4.50;1.10;;;;;;;27.52;43.87;99593.80;105650;1279;25450;-76
2022/06/11 10:01:16;;;;;;;4.70;1.30;;;;;;;27.54;43.84;99591.48;105688;1279;22566;-86
2022/06/11 10:04:04;;;;;;;5.60;1.30;;;;;;;27.81;44.03;99592.88;105701;1279;22541;-85
2022/06/11 10:06:47;;;;;;;5.30;1.20;;;;;;;27.96;43.33;99589.48;105706;1279;22545;-79
2022/06/11 10:09:26;;;;;;;6.20;1.10;;;;;;;28.19;43.74;99587.73;105889;1279;25419;-79
2022/06/11 10:12:10;;;;;;;4.40;1.00;;;;;;;28.56;43.89;99589.00;105624;1279;22546;-82
2022/06/11 10:14:59;;;;;;;7.10;1.10;;;;;;;28.85;43.08;99588.47;105888;1280;22537;-84
2022/06/11 10:18:06;;;;;;;3.20;1.00;;;;;;;28.82;42.71;99595.14;105701;1279;25371;-80
2022/06/11 10:20:42;;;;;;;3.50;1.00;;;;;;;28.24;42.29;99592.15;107793;1279;24188;-85
2022/06/11 10:23:17;;;;;;;7.60;1.10;;;;;;;28.00;42.12;99592.93;106305;1273;22599;-79
2022/06/11 10:26:01;;;;;;;6.40;1.20;;;;;;;27.70;41.79;99590.61;106118;1275;24213;-79
2022/06/11 10:28:52;;;;;;;5.30;0.90;;;;;;;27.58;42.49;99586.73;105969;1275;22547;-87
2022/06/11 10:31:32;;;;;;;4.70;0.90;;;;;;;27.78;42.28;99589.45;106071;1274;22504;-83
2022/06/11 10:34:11;;;;;;;5.00;1.00;;;;;;;28.05;42.40;99586.43;106039;1273;24231;-80
2022/06/11 10:36:46;;;;;;;3.60;1.10;;;;;;;28.30;42.58;99590.07;106267;1273;24341;-77
2022/06/11 10:39:36;;;;;;;5.40;1.20;;;;;;;28.75;42.71;99589.13;106275;1274;22777;-83
2022/06/11 10:42:13;;;;;;;5.00;1.30;;;;;;;28.77;42.06;99589.90;106058;1274;22529;-83
2022/06/11 10:44:49;;;;;;;6.90;1.30;;;;;;;28.76;41.62;99590.20;106045;1275;24230;-80
2022/06/11 10:47:36;;;;;;;5.80;1.20;;;;;;;28.59;41.37;99593.17;106027;1273;25226;-86
2022/06/11 10:50:09;;;;;;;7.10;1.40;;;;;;;28.41;41.64;99586.54;106113;1273;22534;-84
2022/06/11 10:53:22;;;;;;;4.80;1.20;;;;;;;28.54;41.46;99586.66;106058;1273;22538;-86
2022/06/11 10:55:57;;;;;;;6.20;1.40;;;;;;;28.68;41.44;99584.16;106076;1273;24426;-85
2022/06/11 10:58:46;;;;;;;8.90;1.20;;;;;;;28.74;41.75;99581.86;105940;1274;24313;-84
2022/06/11 11:02:09;;;;;;;6.20;1.30;;;;;;;28.52;41.31;99580.27;106022;1278;25179;-84
2022/06/11 11:04:58;;;;;;;5.60;1.40;;;;;;;28.00;41.29;99579.71;106277;1273;22563;-83
2022/06/11 11:08:17;;;;;;;5.90;1.00;;;;;;;27.91;41.52;99572.96;106073;1274;24290;-83
2022/06/11 11:11:14;;;;;;;5.20;1.20;;;;;;;27.77;41.39;99573.91;105968;1274;22540;-84
2022/06/11 11:14:04;;;;;;;5.40;1.10;;;;;;;27.36;41.01;99571.39;105954;1274;25241;-85
2022/06/11 11:16:52;;;;;;;;;;;;;;;;;;;;;
2022/06/11 11:19:42;;;;;;;5.90;1.20;;;;;;;27.55;40.94;99567.56;106162;1274;23957;-84
2022/06/11 11:22:17;;;;;;;4.50;1.30;;;;;;;27.95;40.97;99563.88;106069;1274;22529;-83
2022/06/11 11:25:05;;;;;;;6.00;1.20;;;;;;;28.19;40.46;99562.39;106011;1274;24213;-85
2022/06/11 11:28:24;;;;;;;7.90;1.40;;;;;;;28.05;40.15;99565.30;106059;1275;22990;-84
2022/06/11 11:31:19;;;;;;;7.40;1.70;;;;;;;28.00;40.26;99564.38;106129;1274;23899;-82
2022/06/11 11:34:29;;;;;;;5.20;1.30;;;;;;;28.06;40.07;99567.48;106265;1274;22734;-82
2022/06/11 11:37:40;;;;;;;5.20;1.40;;;;;;;27.53;39.77;99563.63;105830;1281;22721;-81
2022/06/11 11:40:57;;;;;;;;;;;;;;;;;;;;;
2022/06/11 11:43:58;;;;;;;5.00;1.30;;;;;;;26.74;39.88;99563.85;105583;1281;24224;-87
2022/06/11 11:46:49;;;;;;;6.20;1.50;;;;;;;26.59;40.25;99559.21;105791;1281;22592;-88
2022/06/11 11:50:02;;;;;;;5.00;1.20;;;;;;;26.67;40.09;99555.71;105691;1279;22515;-84
2022/06/11 11:54:05;;;;;;;4.20;1.00;;;;;;;26.58;40.30;99554.39;105646;1281;24243;-85
2022/06/11 11:57:16;;;;;;;6.40;1.60;;;;;;;26.37;39.74;99550.45;104899;1288;25323;-83
2022/06/11 11:59:55;;;;;;;5.80;1.30;;;;;;;26.29;39.95;99553.77;104641;1288;396340;-82
2022/06/11 12:02:50;;;;;;;6.10;1.50;;;;;;;26.79;40.23;99549.27;104692;1288;22679;-83
2022/06/11 12:05:34;;;;;;;5.20;1.00;;;;;;;27.45;40.68;99542.70;104519;1288;22730;-88
2022/06/11 12:08:12;;;;;;;4.50;1.40;;;;;;;28.06;40.51;99541.02;104916;1288;22556;-82
2022/06/11 12:10:57;;;;;;;6.10;1.40;;;;;;;28.45;40.06;99545.11;104717;1290;26472;-82
2022/06/11 12:13:53;;;;;;;5.70;1.20;;;;;;;28.46;39.98;99544.81;105384;1281;24238;-83
2022/06/11 12:16:46;;;;;;;6.20;1.20;;;;;;;28.21;39.37;99541.27;105416;1281;24332;-81
2022/06/11 12:19:36;;;;;;;5.30;1.10;;;;;;;27.91;39.46;99543.44;105565;1281;22827;-85
2022/06/11 12:22:36;;;;;;;4.30;1.10;;;;;;;27.74;39.02;99542.11;105351;1281;22590;-88
2022/06/11 12:26:21;;;;;;;5.10;1.20;;;;;;;27.25;39.08;99544.54;105735;1281;22708;-85
2022/06/11 12:29:35;;;;;;;3.50;1.10;;;;;;;26.56;38.60;99542.75;105508;1281;24219;-83
2022/06/11 12:32:44;;;;;;;8.70;1.30;;;;;;;26.04;38.86;99539.72;105470;1277;25232;-83
2022/06/11 12:36:46;;;;;;;;;;;;;;;;;;;;;
2022/06/11 12:40:31;;;;;;;;;;;;;;;;;;;;;
2022/06/11 12:43:35;;;;;;;5.00;1.40;;;;;;;25.68;39.96;99540.56;105602;1281;22610;-82
2022/06/11 12:46:19;;;;;;;7.00;1.60;;;;;;;26.16;40.05;99539.81;105772;1281;22714;-79
2022/06/11 12:49:07;;;;;;;5.60;1.30;;;;;;;26.56;39.75;99538.38;105592;1281;22571;-82
2022/06/11 12:51:54;;;;;;;4.40;1.10;;;;;;;26.89;39.76;99532.42;105703;1281;22591;-84
2022/06/11 12:54:55;;;;;;;6.80;1.20;;;;;;;27.10;39.06;99530.86;105666;1281;22547;-84
2022/06/11 12:58:08;;;;;;;5.60;1.20;;;;;;;27.17;39.18;99527.96;106111;1281;23357;-83
2022/06/11 13:01:01;;;;;;;4.70;1.30;;;;;;;27.41;39.26;99525.58;105571;1281;24235;-85
2022/06/11 13:04:10;;;;;;;5.30;1.20;;;;;;;27.58;39.19;99519.19;105648;1281;22551;-81
2022/06/11 13:08:06;;;;;;;4.30;1.10;;;;;;;27.67;38.98;99520.73;105732;1281;22560;-88
2022/06/11 13:11:10;;;;;;;4.60;1.30;;;;;;;27.63;38.34;99519.15;105727;1281;24121;-84
2022/06/11 13:14:48;;;;;;;6.60;1.20;;;;;;;27.57;38.54;99520.08;105713;1281;25369;-84
2022/06/11 13:17:41;;;;;;;3.80;1.00;;;;;;;27.65;38.25;99514.42;106026;1274;24211;-84
2022/06/11 13:20:38;;;;;;;4.00;1.10;;;;;;;27.70;38.36;99506.06;106184;1274;24011;-86
2022/06/11 13:23:34;;;;;;;4.80;1.00;;;;;;;27.67;38.06;99503.68;106057;1275;23281;-84
2022/06/11 13:26:08;;;;;;;5.30;1.30;;;;;;;27.53;38.07;99510.62;106041;1275;25250;-82
2022/06/11 13:28:53;;;;;;;4.90;1.20;;;;;;;27.23;38.01;99509.16;105944;1277;24216;-84
2022/06/11 13:31:44;;;;;;;6.70;0.80;;;;;;;27.11;38.17;99510.14;105995;1274;24247;-84
2022/06/11 13:34:28;;;;;;;5.00;1.20;;;;;;;26.75;37.91;99511.09;105981;1276;24274;-85
2022/06/11 13:37:51;;;;;;;5.00;1.10;;;;;;;26.80;37.82;99509.92;106012;1275;24282;-83
2022/06/11 13:40:51;;;;;;;5.40;1.00;;;;;;;26.93;38.02;99506.43;105920;1274;23911;-83
2022/06/11 13:44:00;;;;;;;6.00;1.20;;;;;;;27.23;37.92;99501.23;105947;1275;24746;-83
2022/06/11 13:47:02;;;;;;;4.50;1.10;;;;;;;27.55;38.06;99499.02;105997;1277;24253;-87
2022/06/11 13:49:48;;;;;;;4.30;1.00;;;;;;;27.82;37.78;99493.70;105986;1278;23898;-83
2022/06/11 13:55:40;;;;;;;3.70;1.10;;;;;;;27.99;37.23;99495.50;105917;1276;22557;-87
2022/06/11 13:58:38;;;;;;;5.10;1.20;;;;;;;27.61;37.62;99489.95;106566;1276;22618;-83
2022/06/11 14:02:15;;;;;;;6.50;1.10;;;;;;;27.48;37.73;99490.27;106096;1275;26999;-80
2022/06/11 14:06:08;;;;;;;6.10;1.20;;;;;;;27.08;37.33;99489.71;106708;1273;23984;-83
2022/06/11 14:13:03;;;;;;;4.80;1.20;;;;;;;26.34;37.75;99488.89;105976;1277;22550;-83
2022/06/11 14:15:52;;;;;;;4.90;1.00;;;;;;;26.17;38.06;99485.33;106120;1275;24240;-83
2022/06/11 14:18:35;;;;;;;6.80;1.30;;;;;;;26.49;37.99;99476.02;106092;1276;22618;-81
2022/06/11 14:21:43;;;;;;;4.70;1.30;;;;;;;26.87;37.64;99475.64;106178;1276;24234;-82
2022/06/11 14:24:49;;;;;;;4.80;1.20;;;;;;;27.25;37.49;99474.96;106297;1274;22726;-82
2022/06/11 14:27:35;;;;;;;5.80;1.10;;;;;;;27.44;37.35;99477.48;106059;1274;25248;-82
2022/06/11 14:30:12;;;;;;;6.20;1.50;;;;;;;27.55;37.35;99472.30;106057;1275;22568;-82